Rouyn, Canada
Current Conditions -  °F | °C
As of 3:00 PM on Saturday 20 Dec 2014 (Local Time) from CYUY Reporting Station
Few Clouds Few Clouds  
Wind Chill: 12°   Ceiling: Unl
Heat Index: 12°   Visibility: 15mi
Dew Point:   Wind: 0mph
Humidity: 85%   Direction: NA
Pressure: 30.26"   Gusts: NA
Location:  48.23°N, 79.03°W
Report Text: CYUY 202000Z 00000KT 15SM FEW040 FEW090 M11/M13 A3026 RMK SC1AC1 SC TR SLP277
Loading
Personal Weather Stations






























Interactive Weather Map New forecast layout! Learn more

10-Day Weather Forecast

Advertisements
Track Severe Weather on mobile